WetterOnline ( http://www.wetteronline.de )

Wetter aktuell Malsch

Aktuelles Wetter: Mühlacker (245m)

6-stündlich | Neueste Meldungen
Ortszeit Temperatur Wetter
Mo, 23.04. 14:00 18.1° C wolkig
Mo, 23.04. 8:00 12.4° C leicht bewölkt
Mo, 23.04. 2:00 13.3° C bedeckt
So, 22.04. 20:00 23.1° C wolkig
So, 22.04. 14:00 26.6° C leicht bewölkt
So, 22.04. 8:00 9.9° C wolkenlos
So, 22.04. 2:00 9.4° C wolkenlos
Sa, 21.04. 20:00 19.2° C wolkenlos
Ortszeit Temperatur Wetter
Mo, 23.04. 15:10 18.4° C wolkig
Mo, 23.04. 15:00 17.8° C bedeckt
Mo, 23.04. 14:50 17.8° C bedeckt
Mo, 23.04. 14:40 17.7° C bewölkt
Mo, 23.04. 14:30 17.8° C wolkig
Mo, 23.04. 14:20 17.8° C wolkig
Mo, 23.04. 14:00 18.1° C wolkig
Mo, 23.04. 13:30 18.6° C bewölkt
Mo, 23.04. 13:00 18.6° C bedeckt
Mo, 23.04. 12:30 17.7° C bewölkt
Mo, 23.04. 12:00 16.5° C bewölkt
Ortszeit Relative Feuchte Sichtweite
Mo, 23.04. 14:00 70% 40 km
Mo, 23.04. 8:00 85% 30 km
Mo, 23.04. 2:00 75% 45 km
So, 22.04. 20:00 39% 45 km
So, 22.04. 14:00 33% 30 km
So, 22.04. 8:00 96% 7 km
So, 22.04. 2:00 93% 13 km
Sa, 21.04. 20:00 65% 45 km
Ortszeit Relative Feuchte Sichtweite
Mo, 23.04. 15:10 70% -
Mo, 23.04. 15:00 73% 35 km
Mo, 23.04. 14:50 73% -
Mo, 23.04. 14:40 74% -
Mo, 23.04. 14:30 73% 40 km
Mo, 23.04. 14:20 73% -
Mo, 23.04. 14:00 70% 40 km
Mo, 23.04. 13:30 72% 40 km
Mo, 23.04. 13:00 75% 30 km
Mo, 23.04. 12:30 81% 30 km
Mo, 23.04. 12:00 85% 26 km
Ortszeit Niederschlagsmenge Niederschlagsart
Mo, 23.04. 14:00 2 l/m2 in 6 Std. Regen
Mo, 23.04. 8:00 0.0 l/m2 in 12 Std. -
Mo, 23.04. 2:00 0.0 l/m2 in 6 Std. -
So, 22.04. 20:00 0.0 l/m2 in 12 Std. -
So, 22.04. 14:00 0.0 l/m2 in 6 Std. -
So, 22.04. 8:00 0.0 l/m2 in 12 Std. -
So, 22.04. 2:00 0.0 l/m2 in 6 Std. -
Sa, 21.04. 20:00 0.0 l/m2 in 12 Std. -
Ortszeit Niederschlagsmenge Niederschlagsart
Mo, 23.04. 15:10 keine Meldung -
Mo, 23.04. 15:00 0.1 l/m2 in 1 Std. Regen
Mo, 23.04. 14:50 keine Meldung -
Mo, 23.04. 14:40 keine Meldung -
Mo, 23.04. 14:30 0.1 l/m2 in 1 Std. Schneeregen
Mo, 23.04. 14:20 keine Meldung -
Mo, 23.04. 14:00 0.1 l/m2 in 1 Std. Regen
Mo, 23.04. 13:30 0.1 l/m2 in 1 Std. Schneeregen
Mo, 23.04. 13:00 0.0 l/m2 in 1 Std. -
Mo, 23.04. 12:30 0.0 l/m2 in 1 Std. -
Mo, 23.04. 12:00 0.1 l/m2 in 1 Std. Regen
Ortszeit Stärke Spitze Richtung
km/h Bft. km/h Grad Sektor
Mo, 23.04. 14:00 13 3 39 260° W
Mo, 23.04. 8:00 0 0 4 - -
Mo, 23.04. 2:00 4 1 18 40° NO
So, 22.04. 20:00 11 2 31 260° W
So, 22.04. 14:00 7 2 25 280° W
So, 22.04. 8:00 4 1 7 270° W
So, 22.04. 2:00 0 0 4 - -
Sa, 21.04. 20:00 4 1 22 40° NO
Ortszeit Stärke Spitze Richtung
km/h Bft. km/h Grad Sektor
Mo, 23.04. 15:10 14 3 - 250° W
Mo, 23.04. 15:00 13 3 22 250° W
Mo, 23.04. 14:50 13 3 - 250° W
Mo, 23.04. 14:40 11 2 - 250° W
Mo, 23.04. 14:30 11 2 22 260° W
Mo, 23.04. 14:20 11 2 - 260° W
Mo, 23.04. 14:00 13 3 26 260° W
Mo, 23.04. 13:30 11 2 19 260° W
Mo, 23.04. 13:00 7 2 11 240° SW
Mo, 23.04. 12:30 6 1 9 250° W
Mo, 23.04. 12:00 4 1 7 260° W
Ortszeit Untergrenze Bedeckung Gattung
total tief tief mittel hoch
Mo, 23.04. 14:00 990 m 6/8 2/8 - - -
Mo, 23.04. 8:00 3600 m 3/8 3/8 - - -
Mo, 23.04. 2:00 4200 m 8/8 8/8 - - -
So, 22.04. 20:00 8100 m 7/8 0/8 - - -
So, 22.04. 14:00 10500 m 5/8 0/8 - - -
So, 22.04. 8:00 - 0/8 0/8 - - -
So, 22.04. 2:00 - 0/8 0/8 - - -
Sa, 21.04. 20:00 - 0/8 0/8 - - -
Ortszeit Bedeckungsgrad in Achtel und Wolkenuntergrenze
Mo, 23.04. 15:10 1(1800m) 7(3300m) 8(3900m)
Mo, 23.04. 15:00 8(3000m) 2(2400m) 8(3000m)
Mo, 23.04. 14:50 8(3000m)
Mo, 23.04. 14:40 7(3000m)
Mo, 23.04. 14:30 1(900m) 6(2700m)
Mo, 23.04. 14:20 1(900m) 2(2100m) 6(2700m)
Mo, 23.04. 14:00 2(990m) 6(3000m) 6(3600m)
Mo, 23.04. 13:30 5(2700m) 8(3600m) 8(4200m)
Mo, 23.04. 13:00 7(3300m) 8(3900m) 8(4200m)
Mo, 23.04. 12:30 7(3300m) 7(3600m) 8(4500m)
Mo, 23.04. 12:00 7(2400m) 8(3300m) 8(3900m)
Ortszeit Luftdruck NN (hPa) Tendenz (hPa in 3 Std.)
Mo, 23.04. 14:00 1017 + 0,2
Mo, 23.04. 8:00 1016 + 0,2
Mo, 23.04. 2:00 1015 + 0,7
So, 22.04. 20:00 1012 + 0,3
So, 22.04. 14:00 1014 - 1,2
So, 22.04. 8:00 1017 - 0,3
So, 22.04. 2:00 1018 - 0,1
Sa, 21.04. 20:00 1017 - 0,8
Ortszeit Luftdruck NN (hPa) Tendenz (hPa in 3 Std.)
Mo, 23.04. 15:10 1017 keine Meldung
Mo, 23.04. 15:00 1017 0,0
Mo, 23.04. 14:50 1017 keine Meldung
Mo, 23.04. 14:40 1017 keine Meldung
Mo, 23.04. 14:30 1017 - 0,2
Mo, 23.04. 14:20 1017 keine Meldung
Mo, 23.04. 14:00 1017 + 0,2
Mo, 23.04. 13:30 1017 + 0,2
Mo, 23.04. 13:00 1017 + 0,2
Mo, 23.04. 12:30 1017 + 0,8
Mo, 23.04. 12:00 1017 + 1,7
Ortszeit Schneehöhe (cm)
Mo, 23.04. 14:00 -
Mo, 23.04. 8:00 0
Mo, 23.04. 2:00 0
So, 22.04. 20:00 0
So, 22.04. 14:00 0
So, 22.04. 8:00 0
So, 22.04. 2:00 0
Sa, 21.04. 20:00 0
Ortszeit Schneehöhe (cm)
Mo, 23.04. 15:10 -
Mo, 23.04. 15:00 -
Mo, 23.04. 14:50 -
Mo, 23.04. 14:40 -
Mo, 23.04. 14:30 -
Mo, 23.04. 14:20 -
Mo, 23.04. 14:00 -
Mo, 23.04. 13:30 -
Mo, 23.04. 13:00 -
Mo, 23.04. 12:30 0
Mo, 23.04. 12:00 0
Link zu dieser Seite / Seite empfehlen

Das Wetter in ...